sensor_id;sensor_type;location;lat;lon;timestamp;P1;durP1;ratioP1;P2;durP2;ratioP2
61460;SDS011;47325;50.506;4.472;2024-02-26T00:05:08;1.90;;;1.10;;
61460;SDS011;47325;50.506;4.472;2024-02-26T00:10:53;2.40;;;1.30;;
61460;SDS011;47325;50.506;4.472;2024-02-26T00:16:37;2.30;;;1.10;;
61460;SDS011;47325;50.506;4.472;2024-02-26T00:22:23;1.60;;;1.00;;
61460;SDS011;47325;50.506;4.472;2024-02-26T00:28:07;1.70;;;1.00;;
61460;SDS011;47325;50.506;4.472;2024-02-26T00:33:57;1.60;;;0.90;;
61460;SDS011;47325;50.506;4.472;2024-02-26T00:39:41;1.90;;;1.00;;
61460;SDS011;47325;50.506;4.472;2024-02-26T00:45:25;1.60;;;1.10;;
61460;SDS011;47325;50.506;4.472;2024-02-26T00:51:09;1.60;;;0.90;;
61460;SDS011;47325;50.506;4.472;2024-02-26T00:56:53;1.70;;;0.80;;
61460;SDS011;47325;50.506;4.472;2024-02-26T01:02:37;2.00;;;0.90;;
61460;SDS011;47325;50.506;4.472;2024-02-26T01:08:22;1.30;;;0.90;;
61460;SDS011;47325;50.506;4.472;2024-02-26T01:14:06;1.30;;;0.80;;
61460;SDS011;47325;50.506;4.472;2024-02-26T01:19:50;1.80;;;0.80;;
61460;SDS011;47325;50.506;4.472;2024-02-26T01:25:34;1.40;;;0.70;;
61460;SDS011;47325;50.506;4.472;2024-02-26T01:31:18;3.30;;;1.00;;
61460;SDS011;47325;50.506;4.472;2024-02-26T01:37:01;1.60;;;0.80;;
61460;SDS011;47325;50.506;4.472;2024-02-26T01:42:45;1.20;;;0.80;;
61460;SDS011;47325;50.506;4.472;2024-02-26T01:48:29;1.20;;;0.70;;
61460;SDS011;47325;50.506;4.472;2024-02-26T01:54:14;1.10;;;0.70;;
61460;SDS011;47325;50.506;4.472;2024-02-26T01:59:58;1.40;;;0.90;;
61460;SDS011;47325;50.506;4.472;2024-02-26T02:05:42;2.20;;;0.90;;
61460;SDS011;47325;50.506;4.472;2024-02-26T02:11:26;1.90;;;0.90;;
61460;SDS011;47325;50.506;4.472;2024-02-26T02:17:10;1.70;;;0.80;;
61460;SDS011;47325;50.506;4.472;2024-02-26T02:22:54;1.20;;;0.80;;
61460;SDS011;47325;50.506;4.472;2024-02-26T02:28:39;1.70;;;0.80;;
61460;SDS011;47325;50.506;4.472;2024-02-26T02:34:23;1.40;;;0.70;;
61460;SDS011;47325;50.506;4.472;2024-02-26T02:40:09;0.80;;;0.70;;
61460;SDS011;47325;50.506;4.472;2024-02-26T02:45:53;1.00;;;0.60;;
61460;SDS011;47325;50.506;4.472;2024-02-26T02:51:37;1.10;;;0.80;;
61460;SDS011;47325;50.506;4.472;2024-02-26T02:57:20;1.40;;;0.70;;
61460;SDS011;47325;50.506;4.472;2024-02-26T03:03:05;1.20;;;0.80;;
61460;SDS011;47325;50.506;4.472;2024-02-26T03:08:49;1.00;;;0.70;;
61460;SDS011;47325;50.506;4.472;2024-02-26T03:14:34;0.90;;;0.80;;
61460;SDS011;47325;50.506;4.472;2024-02-26T03:20:17;1.20;;;0.70;;
61460;SDS011;47325;50.506;4.472;2024-02-26T03:26:03;0.70;;;0.70;;
61460;SDS011;47325;50.506;4.472;2024-02-26T03:31:47;1.40;;;0.80;;
61460;SDS011;47325;50.506;4.472;2024-02-26T03:37:31;0.90;;;0.70;;
61460;SDS011;47325;50.506;4.472;2024-02-26T03:43:14;1.00;;;0.60;;
61460;SDS011;47325;50.506;4.472;2024-02-26T03:48:58;0.90;;;0.70;;
61460;SDS011;47325;50.506;4.472;2024-02-26T03:54:43;1.20;;;0.80;;
61460;SDS011;47325;50.506;4.472;2024-02-26T04:00:26;1.00;;;0.80;;
61460;SDS011;47325;50.506;4.472;2024-02-26T04:06:12;1.70;;;0.80;;
61460;SDS011;47325;50.506;4.472;2024-02-26T04:11:56;1.10;;;0.70;;
61460;SDS011;47325;50.506;4.472;2024-02-26T04:17:40;1.90;;;0.90;;
61460;SDS011;47325;50.506;4.472;2024-02-26T04:23:26;3.20;;;1.00;;
61460;SDS011;47325;50.506;4.472;2024-02-26T04:29:10;2.90;;;0.90;;
61460;SDS011;47325;50.506;4.472;2024-02-26T04:34:54;1.70;;;1.00;;
61460;SDS011;47325;50.506;4.472;2024-02-26T04:40:38;2.50;;;1.00;;
61460;SDS011;47325;50.506;4.472;2024-02-26T04:46:22;2.40;;;0.90;;
61460;SDS011;47325;50.506;4.472;2024-02-26T04:52:06;1.20;;;1.00;;
61460;SDS011;47325;50.506;4.472;2024-02-26T04:57:49;1.40;;;0.90;;
61460;SDS011;47325;50.506;4.472;2024-02-26T05:03:33;2.20;;;1.00;;
61460;SDS011;47325;50.506;4.472;2024-02-26T05:09:20;2.90;;;1.20;;
61460;SDS011;47325;50.506;4.472;2024-02-26T05:15:04;1.40;;;1.00;;
61460;SDS011;47325;50.506;4.472;2024-02-26T05:20:49;1.20;;;1.00;;
61460;SDS011;47325;50.506;4.472;2024-02-26T05:26:32;1.70;;;1.20;;
61460;SDS011;47325;50.506;4.472;2024-02-26T05:32:16;1.70;;;1.20;;
61460;SDS011;47325;50.506;4.472;2024-02-26T05:38:00;1.80;;;1.10;;
61460;SDS011;47325;50.506;4.472;2024-02-26T05:43:43;1.80;;;1.20;;
61460;SDS011;47325;50.506;4.472;2024-02-26T05:49:27;1.30;;;1.10;;
61460;SDS011;47325;50.506;4.472;2024-02-26T05:55:12;1.70;;;1.10;;
61460;SDS011;47325;50.506;4.472;2024-02-26T06:00:56;2.00;;;1.30;;
61460;SDS011;47325;50.506;4.472;2024-02-26T06:06:40;1.50;;;1.20;;
61460;SDS011;47325;50.506;4.472;2024-02-26T06:12:27;1.90;;;1.30;;
61460;SDS011;47325;50.506;4.472;2024-02-26T06:18:11;1.90;;;1.40;;
61460;SDS011;47325;50.506;4.472;2024-02-26T06:23:55;2.10;;;1.40;;
61460;SDS011;47325;50.506;4.472;2024-02-26T06:29:39;1.70;;;1.50;;
61460;SDS011;47325;50.506;4.472;2024-02-26T06:35:23;2.00;;;1.50;;
61460;SDS011;47325;50.506;4.472;2024-02-26T06:41:07;1.50;;;1.30;;
61460;SDS011;47325;50.506;4.472;2024-02-26T06:46:51;1.70;;;1.20;;
61460;SDS011;47325;50.506;4.472;2024-02-26T06:52:35;1.90;;;1.60;;
61460;SDS011;47325;50.506;4.472;2024-02-26T06:58:18;1.80;;;1.40;;
61460;SDS011;47325;50.506;4.472;2024-02-26T07:04:03;1.90;;;1.50;;
61460;SDS011;47325;50.506;4.472;2024-02-26T07:09:49;2.30;;;1.50;;
61460;SDS011;47325;50.506;4.472;2024-02-26T07:15:33;2.00;;;1.60;;
61460;SDS011;47325;50.506;4.472;2024-02-26T07:21:17;2.40;;;1.50;;
61460;SDS011;47325;50.506;4.472;2024-02-26T07:27:02;2.70;;;1.60;;
61460;SDS011;47325;50.506;4.472;2024-02-26T07:32:46;2.30;;;1.70;;
61460;SDS011;47325;50.506;4.472;2024-02-26T07:38:34;2.70;;;1.70;;
61460;SDS011;47325;50.506;4.472;2024-02-26T07:44:29;2.20;;;1.50;;
61460;SDS011;47325;50.506;4.472;2024-02-26T07:50:13;3.60;;;1.80;;
61460;SDS011;47325;50.506;4.472;2024-02-26T07:55:57;2.20;;;1.60;;
61460;SDS011;47325;50.506;4.472;2024-02-26T08:01:41;2.40;;;1.60;;
61460;SDS011;47325;50.506;4.472;2024-02-26T08:07:38;2.50;;;1.50;;
61460;SDS011;47325;50.506;4.472;2024-02-26T08:13:22;2.50;;;1.90;;
61460;SDS011;47325;50.506;4.472;2024-02-26T08:19:06;2.50;;;1.80;;
61460;SDS011;47325;50.506;4.472;2024-02-26T08:24:50;3.30;;;1.90;;
61460;SDS011;47325;50.506;4.472;2024-02-26T08:30:34;2.50;;;1.90;;
61460;SDS011;47325;50.506;4.472;2024-02-26T08:36:18;2.20;;;1.80;;
61460;SDS011;47325;50.506;4.472;2024-02-26T08:42:02;2.00;;;1.60;;
61460;SDS011;47325;50.506;4.472;2024-02-26T08:47:48;2.80;;;1.90;;
61460;SDS011;47325;50.506;4.472;2024-02-26T08:53:32;2.60;;;1.80;;
61460;SDS011;47325;50.506;4.472;2024-02-26T08:59:25;2.40;;;1.70;;
61460;SDS011;47325;50.506;4.472;2024-02-26T09:05:09;2.00;;;1.60;;
61460;SDS011;47325;50.506;4.472;2024-02-26T09:10:53;2.30;;;1.70;;
61460;SDS011;47325;50.506;4.472;2024-02-26T09:16:37;2.30;;;1.70;;
61460;SDS011;47325;50.506;4.472;2024-02-26T09:22:20;2.40;;;1.80;;
61460;SDS011;47325;50.506;4.472;2024-02-26T09:28:04;2.40;;;1.90;;
61460;SDS011;47325;50.506;4.472;2024-02-26T09:33:48;2.20;;;1.70;;
61460;SDS011;47325;50.506;4.472;2024-02-26T09:39:32;2.60;;;1.90;;
61460;SDS011;47325;50.506;4.472;2024-02-26T09:45:17;2.40;;;2.00;;
61460;SDS011;47325;50.506;4.472;2024-02-26T09:51:02;2.60;;;2.00;;
61460;SDS011;47325;50.506;4.472;2024-02-26T09:56:46;2.70;;;2.00;;
61460;SDS011;47325;50.506;4.472;2024-02-26T10:02:46;2.70;;;2.00;;
61460;SDS011;47325;50.506;4.472;2024-02-26T10:08:30;3.30;;;1.90;;
61460;SDS011;47325;50.506;4.472;2024-02-26T10:14:15;2.60;;;2.10;;
61460;SDS011;47325;50.506;4.472;2024-02-26T10:19:59;3.50;;;1.90;;
61460;SDS011;47325;50.506;4.472;2024-02-26T10:25:56;2.70;;;1.90;;
61460;SDS011;47325;50.506;4.472;2024-02-26T10:31:41;3.50;;;2.10;;
61460;SDS011;47325;50.506;4.472;2024-02-26T10:37:25;3.70;;;2.10;;
61460;SDS011;47325;50.506;4.472;2024-02-26T10:43:12;3.30;;;2.20;;
61460;SDS011;47325;50.506;4.472;2024-02-26T10:48:57;3.20;;;2.20;;
61460;SDS011;47325;50.506;4.472;2024-02-26T10:54:41;2.80;;;2.20;;
61460;SDS011;47325;50.506;4.472;2024-02-26T11:00:27;2.40;;;2.10;;
61460;SDS011;47325;50.506;4.472;2024-02-26T11:06:11;3.30;;;2.50;;
61460;SDS011;47325;50.506;4.472;2024-02-26T11:11:56;3.10;;;2.40;;
61460;SDS011;47325;50.506;4.472;2024-02-26T11:17:40;3.60;;;2.50;;
61460;SDS011;47325;50.506;4.472;2024-02-26T11:23:26;3.20;;;2.70;;
61460;SDS011;47325;50.506;4.472;2024-02-26T11:29:11;2.70;;;2.50;;
61460;SDS011;47325;50.506;4.472;2024-02-26T11:34:57;3.00;;;2.50;;
61460;SDS011;47325;50.506;4.472;2024-02-26T11:40:42;3.30;;;2.40;;
61460;SDS011;47325;50.506;4.472;2024-02-26T11:46:30;3.20;;;2.50;;
61460;SDS011;47325;50.506;4.472;2024-02-26T11:52:14;3.10;;;2.50;;
61460;SDS011;47325;50.506;4.472;2024-02-26T11:57:58;2.70;;;2.40;;
61460;SDS011;47325;50.506;4.472;2024-02-26T12:03:42;3.20;;;2.50;;
61460;SDS011;47325;50.506;4.472;2024-02-26T12:09:35;2.70;;;2.40;;
61460;SDS011;47325;50.506;4.472;2024-02-26T12:15:19;2.90;;;2.50;;
61460;SDS011;47325;50.506;4.472;2024-02-26T12:21:07;3.50;;;2.70;;
61460;SDS011;47325;50.506;4.472;2024-02-26T12:26:50;3.20;;;2.80;;
61460;SDS011;47325;50.506;4.472;2024-02-26T12:32:35;3.30;;;2.90;;
61460;SDS011;47325;50.506;4.472;2024-02-26T12:38:19;3.80;;;3.00;;
61460;SDS011;47325;50.506;4.472;2024-02-26T12:44:04;3.50;;;2.80;;
61460;SDS011;47325;50.506;4.472;2024-02-26T12:49:50;3.00;;;2.70;;
61460;SDS011;47325;50.506;4.472;2024-02-26T12:55:34;3.30;;;2.80;;
61460;SDS011;47325;50.506;4.472;2024-02-26T13:01:22;3.40;;;2.90;;
61460;SDS011;47325;50.506;4.472;2024-02-26T13:07:07;3.40;;;3.10;;
61460;SDS011;47325;50.506;4.472;2024-02-26T13:12:51;3.30;;;3.00;;
61460;SDS011;47325;50.506;4.472;2024-02-26T13:18:36;3.50;;;3.20;;
61460;SDS011;47325;50.506;4.472;2024-02-26T13:24:20;3.30;;;3.00;;
61460;SDS011;47325;50.506;4.472;2024-02-26T13:30:09;3.30;;;3.00;;
61460;SDS011;47325;50.506;4.472;2024-02-26T13:35:53;3.00;;;2.70;;
61460;SDS011;47325;50.506;4.472;2024-02-26T13:41:38;3.20;;;2.80;;
61460;SDS011;47325;50.506;4.472;2024-02-26T13:47:22;3.10;;;2.80;;
61460;SDS011;47325;50.506;4.472;2024-02-26T13:53:06;3.10;;;2.80;;
61460;SDS011;47325;50.506;4.472;2024-02-26T13:58:51;3.80;;;2.50;;
61460;SDS011;47325;50.506;4.472;2024-02-26T14:04:34;3.30;;;3.00;;
61460;SDS011;47325;50.506;4.472;2024-02-26T14:10:19;3.00;;;2.60;;
61460;SDS011;47325;50.506;4.472;2024-02-26T14:16:03;2.80;;;2.50;;
61460;SDS011;47325;50.506;4.472;2024-02-26T14:21:47;2.90;;;2.70;;
61460;SDS011;47325;50.506;4.472;2024-02-26T14:27:32;2.70;;;2.50;;
61460;SDS011;47325;50.506;4.472;2024-02-26T14:33:16;2.70;;;2.40;;
61460;SDS011;47325;50.506;4.472;2024-02-26T14:39:01;3.30;;;2.70;;
61460;SDS011;47325;50.506;4.472;2024-02-26T14:44:45;11.40;;;9.10;;
61460;SDS011;47325;50.506;4.472;2024-02-26T14:50:31;13.20;;;10.20;;
61460;SDS011;47325;50.506;4.472;2024-02-26T14:56:15;12.30;;;9.40;;
61460;SDS011;47325;50.506;4.472;2024-02-26T15:02:00;10.30;;;8.70;;
61460;SDS011;47325;50.506;4.472;2024-02-26T15:07:44;12.10;;;8.40;;
61460;SDS011;47325;50.506;4.472;2024-02-26T15:13:28;9.80;;;8.00;;
61460;SDS011;47325;50.506;4.472;2024-02-26T15:19:12;7.90;;;6.90;;
61460;SDS011;47325;50.506;4.472;2024-02-26T15:25:00;8.90;;;6.90;;
61460;SDS011;47325;50.506;4.472;2024-02-26T15:30:44;8.70;;;6.70;;
61460;SDS011;47325;50.506;4.472;2024-02-26T15:36:28;7.90;;;6.50;;
61460;SDS011;47325;50.506;4.472;2024-02-26T15:42:13;7.20;;;6.30;;
61460;SDS011;47325;50.506;4.472;2024-02-26T15:47:58;7.60;;;6.00;;
61460;SDS011;47325;50.506;4.472;2024-02-26T15:53:43;7.50;;;6.40;;
61460;SDS011;47325;50.506;4.472;2024-02-26T15:59:28;8.70;;;6.40;;
61460;SDS011;47325;50.506;4.472;2024-02-26T16:05:12;7.90;;;6.30;;
61460;SDS011;47325;50.506;4.472;2024-02-26T16:10:56;8.10;;;6.20;;
61460;SDS011;47325;50.506;4.472;2024-02-26T16:16:46;9.00;;;6.50;;
61460;SDS011;47325;50.506;4.472;2024-02-26T16:22:30;8.70;;;6.70;;
61460;SDS011;47325;50.506;4.472;2024-02-26T16:28:14;9.00;;;6.40;;
61460;SDS011;47325;50.506;4.472;2024-02-26T16:33:57;10.10;;;6.90;;
61460;SDS011;47325;50.506;4.472;2024-02-26T16:39:43;9.60;;;6.50;;
61460;SDS011;47325;50.506;4.472;2024-02-26T16:45:27;9.30;;;6.50;;
61460;SDS011;47325;50.506;4.472;2024-02-26T16:51:11;9.40;;;6.40;;
61460;SDS011;47325;50.506;4.472;2024-02-26T16:56:55;8.00;;;6.30;;
61460;SDS011;47325;50.506;4.472;2024-02-26T17:02:40;8.10;;;6.00;;
61460;SDS011;47325;50.506;4.472;2024-02-26T17:08:23;7.80;;;6.10;;
61460;SDS011;47325;50.506;4.472;2024-02-26T17:14:09;9.70;;;6.30;;
61460;SDS011;47325;50.506;4.472;2024-02-26T17:19:54;8.50;;;6.10;;
61460;SDS011;47325;50.506;4.472;2024-02-26T17:25:39;8.50;;;6.20;;
61460;SDS011;47325;50.506;4.472;2024-02-26T17:31:23;8.70;;;6.10;;
61460;SDS011;47325;50.506;4.472;2024-02-26T17:37:07;8.60;;;6.30;;
61460;SDS011;47325;50.506;4.472;2024-02-26T17:42:51;8.80;;;6.30;;
61460;SDS011;47325;50.506;4.472;2024-02-26T17:48:35;7.70;;;5.90;;
61460;SDS011;47325;50.506;4.472;2024-02-26T17:54:19;8.60;;;6.10;;
61460;SDS011;47325;50.506;4.472;2024-02-26T18:00:04;8.30;;;6.30;;
61460;SDS011;47325;50.506;4.472;2024-02-26T18:05:48;7.90;;;5.80;;
61460;SDS011;47325;50.506;4.472;2024-02-26T18:11:32;8.80;;;5.70;;
61460;SDS011;47325;50.506;4.472;2024-02-26T18:17:16;7.40;;;5.30;;
61460;SDS011;47325;50.506;4.472;2024-02-26T18:23:00;7.50;;;5.30;;
61460;SDS011;47325;50.506;4.472;2024-02-26T18:28:44;7.30;;;5.50;;
61460;SDS011;47325;50.506;4.472;2024-02-26T18:34:29;6.70;;;5.40;;
61460;SDS011;47325;50.506;4.472;2024-02-26T18:40:15;7.60;;;5.50;;
61460;SDS011;47325;50.506;4.472;2024-02-26T18:45:58;7.20;;;5.40;;
61460;SDS011;47325;50.506;4.472;2024-02-26T18:51:44;7.30;;;5.70;;
61460;SDS011;47325;50.506;4.472;2024-02-26T18:57:28;6.90;;;5.40;;
61460;SDS011;47325;50.506;4.472;2024-02-26T19:03:14;6.80;;;5.20;;
61460;SDS011;47325;50.506;4.472;2024-02-26T19:08:59;6.80;;;5.20;;
61460;SDS011;47325;50.506;4.472;2024-02-26T19:14:43;7.80;;;5.40;;
61460;SDS011;47325;50.506;4.472;2024-02-26T19:20:27;6.40;;;4.90;;
61460;SDS011;47325;50.506;4.472;2024-02-26T19:26:11;7.30;;;5.00;;
61460;SDS011;47325;50.506;4.472;2024-02-26T19:32:02;8.00;;;4.90;;
61460;SDS011;47325;50.506;4.472;2024-02-26T19:37:46;6.90;;;5.20;;
61460;SDS011;47325;50.506;4.472;2024-02-26T19:43:30;6.80;;;5.10;;
61460;SDS011;47325;50.506;4.472;2024-02-26T19:49:14;8.30;;;5.50;;
61460;SDS011;47325;50.506;4.472;2024-02-26T19:54:59;7.40;;;5.30;;
61460;SDS011;47325;50.506;4.472;2024-02-26T20:00:46;7.30;;;5.60;;
61460;SDS011;47325;50.506;4.472;2024-02-26T20:06:31;6.90;;;5.10;;
61460;SDS011;47325;50.506;4.472;2024-02-26T20:12:15;7.10;;;5.20;;
61460;SDS011;47325;50.506;4.472;2024-02-26T20:17:59;7.10;;;5.30;;
61460;SDS011;47325;50.506;4.472;2024-02-26T20:23:44;7.50;;;5.30;;
61460;SDS011;47325;50.506;4.472;2024-02-26T20:29:28;6.70;;;5.10;;
61460;SDS011;47325;50.506;4.472;2024-02-26T20:35:12;7.70;;;5.30;;
61460;SDS011;47325;50.506;4.472;2024-02-26T20:40:55;6.90;;;5.30;;
61460;SDS011;47325;50.506;4.472;2024-02-26T20:46:43;8.10;;;5.50;;
61460;SDS011;47325;50.506;4.472;2024-02-26T20:52:26;7.20;;;5.30;;
61460;SDS011;47325;50.506;4.472;2024-02-26T20:58:10;8.00;;;5.50;;
61460;SDS011;47325;50.506;4.472;2024-02-26T21:03:54;8.20;;;5.60;;
61460;SDS011;47325;50.506;4.472;2024-02-26T21:09:39;7.80;;;5.80;;
61460;SDS011;47325;50.506;4.472;2024-02-26T21:15:23;8.30;;;5.40;;
61460;SDS011;47325;50.506;4.472;2024-02-26T21:21:08;7.20;;;5.30;;
61460;SDS011;47325;50.506;4.472;2024-02-26T21:26:53;8.70;;;5.90;;
61460;SDS011;47325;50.506;4.472;2024-02-26T21:32:39;9.50;;;5.90;;
61460;SDS011;47325;50.506;4.472;2024-02-26T21:38:24;8.70;;;5.80;;
61460;SDS011;47325;50.506;4.472;2024-02-26T21:44:27;8.80;;;6.20;;
61460;SDS011;47325;50.506;4.472;2024-02-26T21:50:12;8.30;;;5.70;;
61460;SDS011;47325;50.506;4.472;2024-02-26T21:55:57;9.60;;;5.90;;
61460;SDS011;47325;50.506;4.472;2024-02-26T22:01:43;8.60;;;6.00;;
61460;SDS011;47325;50.506;4.472;2024-02-26T22:07:27;9.70;;;6.00;;
61460;SDS011;47325;50.506;4.472;2024-02-26T22:13:11;9.10;;;6.20;;
61460;SDS011;47325;50.506;4.472;2024-02-26T22:18:55;8.70;;;5.60;;
61460;SDS011;47325;50.506;4.472;2024-02-26T22:24:40;8.70;;;6.10;;
61460;SDS011;47325;50.506;4.472;2024-02-26T22:30:24;11.00;;;6.20;;
61460;SDS011;47325;50.506;4.472;2024-02-26T22:36:08;9.70;;;6.20;;
61460;SDS011;47325;50.506;4.472;2024-02-26T22:41:54;10.20;;;6.30;;
61460;SDS011;47325;50.506;4.472;2024-02-26T22:47:39;10.40;;;6.30;;
61460;SDS011;47325;50.506;4.472;2024-02-26T22:53:23;10.60;;;6.60;;
61460;SDS011;47325;50.506;4.472;2024-02-26T22:59:07;9.70;;;6.20;;
61460;SDS011;47325;50.506;4.472;2024-02-26T23:04:51;10.80;;;6.90;;
61460;SDS011;47325;50.506;4.472;2024-02-26T23:10:35;10.80;;;7.10;;
61460;SDS011;47325;50.506;4.472;2024-02-26T23:16:19;9.60;;;6.30;;
61460;SDS011;47325;50.506;4.472;2024-02-26T23:22:03;11.30;;;7.10;;
61460;SDS011;47325;50.506;4.472;2024-02-26T23:27:47;11.10;;;7.30;;
61460;SDS011;47325;50.506;4.472;2024-02-26T23:33:32;10.90;;;6.80;;
61460;SDS011;47325;50.506;4.472;2024-02-26T23:39:16;11.30;;;6.60;;
61460;SDS011;47325;50.506;4.472;2024-02-26T23:45:00;11.40;;;6.90;;
61460;SDS011;47325;50.506;4.472;2024-02-26T23:50:45;11.50;;;7.40;;
61460;SDS011;47325;50.506;4.472;2024-02-26T23:56:29;12.10;;;6.80;;
